sensor_id;sensor_type;location;lat;lon;timestamp;temperature;humidity
39657;DHT22;25337;51.478;7.510;2024-02-15T00:00:55;11.30;99.90
39657;DHT22;25337;51.478;7.510;2024-02-15T00:03:23;11.30;99.90
39657;DHT22;25337;51.478;7.510;2024-02-15T00:05:51;11.30;99.90
39657;DHT22;25337;51.478;7.510;2024-02-15T00:08:18;11.30;99.90
39657;DHT22;25337;51.478;7.510;2024-02-15T00:10:45;11.20;99.90
39657;DHT22;25337;51.478;7.510;2024-02-15T00:13:16;11.30;99.90
39657;DHT22;25337;51.478;7.510;2024-02-15T00:15:42;11.30;99.90
39657;DHT22;25337;51.478;7.510;2024-02-15T00:18:10;11.30;99.90
39657;DHT22;25337;51.478;7.510;2024-02-15T00:20:36;11.30;99.90
39657;DHT22;25337;51.478;7.510;2024-02-15T00:23:05;11.20;99.90
39657;DHT22;25337;51.478;7.510;2024-02-15T00:25:34;11.30;99.90
39657;DHT22;25337;51.478;7.510;2024-02-15T00:28:00;11.30;99.90
39657;DHT22;25337;51.478;7.510;2024-02-15T00:30:27;11.30;99.90
39657;DHT22;25337;51.478;7.510;2024-02-15T00:32:56;11.30;99.90
39657;DHT22;25337;51.478;7.510;2024-02-15T00:35:22;11.20;99.90
39657;DHT22;25337;51.478;7.510;2024-02-15T00:37:52;11.30;99.90
39657;DHT22;25337;51.478;7.510;2024-02-15T00:40:18;11.20;99.90
39657;DHT22;25337;51.478;7.510;2024-02-15T00:42:47;11.20;99.90
39657;DHT22;25337;51.478;7.510;2024-02-15T00:45:12;11.20;99.90
39657;DHT22;25337;51.478;7.510;2024-02-15T00:47:38;11.30;99.90
39657;DHT22;25337;51.478;7.510;2024-02-15T00:50:04;11.30;99.90
39657;DHT22;25337;51.478;7.510;2024-02-15T00:52:30;11.30;99.90
39657;DHT22;25337;51.478;7.510;2024-02-15T00:54:56;11.30;99.90
39657;DHT22;25337;51.478;7.510;2024-02-15T00:57:22;11.30;99.90
39657;DHT22;25337;51.478;7.510;2024-02-15T00:59:47;11.30;99.90
39657;DHT22;25337;51.478;7.510;2024-02-15T01:02:14;11.30;99.90
39657;DHT22;25337;51.478;7.510;2024-02-15T01:04:39;11.30;99.90
39657;DHT22;25337;51.478;7.510;2024-02-15T01:07:11;11.30;99.90
39657;DHT22;25337;51.478;7.510;2024-02-15T01:09:40;11.30;99.90
39657;DHT22;25337;51.478;7.510;2024-02-15T01:12:05;11.30;99.90
39657;DHT22;25337;51.478;7.510;2024-02-15T01:14:31;11.30;99.90
39657;DHT22;25337;51.478;7.510;2024-02-15T01:16:57;11.30;99.90
39657;DHT22;25337;51.478;7.510;2024-02-15T01:19:25;11.30;99.90
39657;DHT22;25337;51.478;7.510;2024-02-15T01:21:54;11.20;99.90
39657;DHT22;25337;51.478;7.510;2024-02-15T01:24:22;11.30;99.90
39657;DHT22;25337;51.478;7.510;2024-02-15T01:26:53;11.30;99.90
39657;DHT22;25337;51.478;7.510;2024-02-15T01:29:18;11.30;99.90
39657;DHT22;25337;51.478;7.510;2024-02-15T01:31:44;11.30;99.90
39657;DHT22;25337;51.478;7.510;2024-02-15T01:34:10;11.30;99.90
39657;DHT22;25337;51.478;7.510;2024-02-15T01:36:36;11.30;99.90
39657;DHT22;25337;51.478;7.510;2024-02-15T01:39:04;11.30;99.90
39657;DHT22;25337;51.478;7.510;2024-02-15T01:41:29;11.30;99.90
39657;DHT22;25337;51.478;7.510;2024-02-15T01:43:58;11.30;99.90
39657;DHT22;25337;51.478;7.510;2024-02-15T01:46:24;11.20;99.90
39657;DHT22;25337;51.478;7.510;2024-02-15T01:48:55;11.30;99.90
39657;DHT22;25337;51.478;7.510;2024-02-15T01:51:23;11.30;99.90
39657;DHT22;25337;51.478;7.510;2024-02-15T01:53:49;11.40;99.90
39657;DHT22;25337;51.478;7.510;2024-02-15T01:56:16;11.40;99.90
39657;DHT22;25337;51.478;7.510;2024-02-15T01:58:43;11.30;99.90
39657;DHT22;25337;51.478;7.510;2024-02-15T02:01:11;11.30;99.90
39657;DHT22;25337;51.478;7.510;2024-02-15T02:03:38;11.40;99.90
39657;DHT22;25337;51.478;7.510;2024-02-15T02:06:07;11.40;99.90
39657;DHT22;25337;51.478;7.510;2024-02-15T02:08:39;11.40;99.90
39657;DHT22;25337;51.478;7.510;2024-02-15T02:11:05;11.40;99.90
39657;DHT22;25337;51.478;7.510;2024-02-15T02:13:31;11.40;99.90
39657;DHT22;25337;51.478;7.510;2024-02-15T02:16:03;11.40;99.90
39657;DHT22;25337;51.478;7.510;2024-02-15T02:18:29;11.40;99.90
39657;DHT22;25337;51.478;7.510;2024-02-15T02:20:55;11.40;99.90
39657;DHT22;25337;51.478;7.510;2024-02-15T02:23:29;11.40;99.90
39657;DHT22;25337;51.478;7.510;2024-02-15T02:25:59;11.30;99.90
39657;DHT22;25337;51.478;7.510;2024-02-15T02:28:25;11.40;99.90
39657;DHT22;25337;51.478;7.510;2024-02-15T02:30:53;11.30;99.90
39657;DHT22;25337;51.478;7.510;2024-02-15T02:33:19;11.30;99.90
39657;DHT22;25337;51.478;7.510;2024-02-15T02:35:50;11.30;99.90
39657;DHT22;25337;51.478;7.510;2024-02-15T02:38:19;11.40;99.90
39657;DHT22;25337;51.478;7.510;2024-02-15T02:40:47;11.30;99.90
39657;DHT22;25337;51.478;7.510;2024-02-15T02:43:18;11.30;99.90
39657;DHT22;25337;51.478;7.510;2024-02-15T02:45:49;11.30;99.90
39657;DHT22;25337;51.478;7.510;2024-02-15T02:48:14;11.30;99.90
39657;DHT22;25337;51.478;7.510;2024-02-15T02:50:43;11.30;99.90
39657;DHT22;25337;51.478;7.510;2024-02-15T02:53:11;11.20;99.90
39657;DHT22;25337;51.478;7.510;2024-02-15T02:55:40;11.20;99.90
39657;DHT22;25337;51.478;7.510;2024-02-15T02:58:09;11.30;99.90
39657;DHT22;25337;51.478;7.510;2024-02-15T03:00:34;11.20;99.90
39657;DHT22;25337;51.478;7.510;2024-02-15T03:03:00;11.20;99.90
39657;DHT22;25337;51.478;7.510;2024-02-15T03:05:31;11.30;99.90
39657;DHT22;25337;51.478;7.510;2024-02-15T03:07:57;11.30;99.90
39657;DHT22;25337;51.478;7.510;2024-02-15T03:10:23;11.30;99.90
39657;DHT22;25337;51.478;7.510;2024-02-15T03:12:52;11.30;99.90
39657;DHT22;25337;51.478;7.510;2024-02-15T03:15:18;11.30;99.90
39657;DHT22;25337;51.478;7.510;2024-02-15T03:17:46;11.30;99.90
39657;DHT22;25337;51.478;7.510;2024-02-15T03:20:12;11.30;99.90
39657;DHT22;25337;51.478;7.510;2024-02-15T03:23:04;11.30;99.90
39657;DHT22;25337;51.478;7.510;2024-02-15T03:25:30;11.30;99.90
39657;DHT22;25337;51.478;7.510;2024-02-15T03:27:59;11.30;99.90
39657;DHT22;25337;51.478;7.510;2024-02-15T03:30:34;11.40;99.90
39657;DHT22;25337;51.478;7.510;2024-02-15T03:33:00;11.30;99.90
39657;DHT22;25337;51.478;7.510;2024-02-15T03:35:30;11.30;99.90
39657;DHT22;25337;51.478;7.510;2024-02-15T03:37:57;11.40;99.90
39657;DHT22;25337;51.478;7.510;2024-02-15T03:40:26;11.30;99.90
39657;DHT22;25337;51.478;7.510;2024-02-15T03:42:53;11.30;99.90
39657;DHT22;25337;51.478;7.510;2024-02-15T03:45:18;11.20;99.90
39657;DHT22;25337;51.478;7.510;2024-02-15T03:47:44;11.20;99.90
39657;DHT22;25337;51.478;7.510;2024-02-15T03:50:11;11.10;99.90
39657;DHT22;25337;51.478;7.510;2024-02-15T03:52:40;11.10;99.90
39657;DHT22;25337;51.478;7.510;2024-02-15T03:55:06;11.00;99.90
39657;DHT22;25337;51.478;7.510;2024-02-15T03:57:38;11.00;99.90
39657;DHT22;25337;51.478;7.510;2024-02-15T04:00:09;11.10;99.90
39657;DHT22;25337;51.478;7.510;2024-02-15T04:02:36;11.10;99.90
39657;DHT22;25337;51.478;7.510;2024-02-15T04:05:02;11.10;99.90
39657;DHT22;25337;51.478;7.510;2024-02-15T04:07:30;11.10;99.90
39657;DHT22;25337;51.478;7.510;2024-02-15T04:09:56;11.10;99.90
39657;DHT22;25337;51.478;7.510;2024-02-15T04:12:22;11.10;99.90
39657;DHT22;25337;51.478;7.510;2024-02-15T04:14:52;11.10;99.90
39657;DHT22;25337;51.478;7.510;2024-02-15T04:17:18;11.10;99.90
39657;DHT22;25337;51.478;7.510;2024-02-15T04:19:47;11.20;99.90
39657;DHT22;25337;51.478;7.510;2024-02-15T04:22:13;11.20;99.90
39657;DHT22;25337;51.478;7.510;2024-02-15T04:24:44;11.30;99.90
39657;DHT22;25337;51.478;7.510;2024-02-15T04:27:13;11.20;99.90
39657;DHT22;25337;51.478;7.510;2024-02-15T04:29:46;11.30;99.90
39657;DHT22;25337;51.478;7.510;2024-02-15T04:32:12;11.20;99.90
39657;DHT22;25337;51.478;7.510;2024-02-15T04:34:41;11.30;99.90
39657;DHT22;25337;51.478;7.510;2024-02-15T04:37:12;11.20;99.90
39657;DHT22;25337;51.478;7.510;2024-02-15T04:39:42;11.30;99.90
39657;DHT22;25337;51.478;7.510;2024-02-15T04:42:11;11.30;99.90
39657;DHT22;25337;51.478;7.510;2024-02-15T04:44:40;11.40;99.90
39657;DHT22;25337;51.478;7.510;2024-02-15T04:47:12;11.40;99.90
39657;DHT22;25337;51.478;7.510;2024-02-15T04:49:38;11.40;99.90
39657;DHT22;25337;51.478;7.510;2024-02-15T04:52:04;11.40;99.90
39657;DHT22;25337;51.478;7.510;2024-02-15T04:54:32;11.40;99.90
39657;DHT22;25337;51.478;7.510;2024-02-15T04:56:58;11.40;99.90
39657;DHT22;25337;51.478;7.510;2024-02-15T04:59:24;11.50;99.90
39657;DHT22;25337;51.478;7.510;2024-02-15T05:01:58;11.50;99.90
39657;DHT22;25337;51.478;7.510;2024-02-15T05:04:24;11.40;99.90
39657;DHT22;25337;51.478;7.510;2024-02-15T05:06:52;11.50;99.90
39657;DHT22;25337;51.478;7.510;2024-02-15T05:09:18;11.50;99.90
39657;DHT22;25337;51.478;7.510;2024-02-15T05:11:44;11.50;99.90
39657;DHT22;25337;51.478;7.510;2024-02-15T05:14:15;11.50;99.90
39657;DHT22;25337;51.478;7.510;2024-02-15T05:16:52;11.50;99.90
39657;DHT22;25337;51.478;7.510;2024-02-15T05:19:24;11.50;99.90
39657;DHT22;25337;51.478;7.510;2024-02-15T05:21:52;11.50;99.90
39657;DHT22;25337;51.478;7.510;2024-02-15T05:24:21;11.50;99.90
39657;DHT22;25337;51.478;7.510;2024-02-15T05:26:46;11.40;99.90
39657;DHT22;25337;51.478;7.510;2024-02-15T05:29:13;11.50;99.90
39657;DHT22;25337;51.478;7.510;2024-02-15T05:31:40;11.50;99.90
39657;DHT22;25337;51.478;7.510;2024-02-15T05:34:13;11.60;99.90
39657;DHT22;25337;51.478;7.510;2024-02-15T05:36:39;11.60;99.90
39657;DHT22;25337;51.478;7.510;2024-02-15T05:39:05;11.60;99.90
39657;DHT22;25337;51.478;7.510;2024-02-15T05:41:36;11.60;99.90
39657;DHT22;25337;51.478;7.510;2024-02-15T05:44:05;11.60;99.90
39657;DHT22;25337;51.478;7.510;2024-02-15T05:46:33;11.60;99.90
39657;DHT22;25337;51.478;7.510;2024-02-15T05:49:02;11.60;99.90
39657;DHT22;25337;51.478;7.510;2024-02-15T05:51:30;11.60;99.90
39657;DHT22;25337;51.478;7.510;2024-02-15T05:53:59;11.60;99.90
39657;DHT22;25337;51.478;7.510;2024-02-15T05:56:28;11.60;99.90
39657;DHT22;25337;51.478;7.510;2024-02-15T05:58:54;11.60;99.90
39657;DHT22;25337;51.478;7.510;2024-02-15T06:01:20;11.70;99.90
39657;DHT22;25337;51.478;7.510;2024-02-15T06:03:49;11.70;99.90
39657;DHT22;25337;51.478;7.510;2024-02-15T06:06:15;11.70;99.90
39657;DHT22;25337;51.478;7.510;2024-02-15T06:08:41;11.60;99.90
39657;DHT22;25337;51.478;7.510;2024-02-15T06:11:07;11.60;99.90
39657;DHT22;25337;51.478;7.510;2024-02-15T06:13:34;11.60;99.90
39657;DHT22;25337;51.478;7.510;2024-02-15T06:16:03;11.60;99.90
39657;DHT22;25337;51.478;7.510;2024-02-15T06:18:34;11.60;99.90
39657;DHT22;25337;51.478;7.510;2024-02-15T06:21:00;11.50;99.90
39657;DHT22;25337;51.478;7.510;2024-02-15T06:23:27;11.50;99.90
39657;DHT22;25337;51.478;7.510;2024-02-15T06:25:55;11.60;99.90
39657;DHT22;25337;51.478;7.510;2024-02-15T06:28:22;11.50;99.90
39657;DHT22;25337;51.478;7.510;2024-02-15T06:31:07;11.50;99.90
39657;DHT22;25337;51.478;7.510;2024-02-15T06:33:52;11.50;99.90
39657;DHT22;25337;51.478;7.510;2024-02-15T06:36:55;11.50;99.90
39657;DHT22;25337;51.478;7.510;2024-02-15T06:39:40;11.50;99.90
39657;DHT22;25337;51.478;7.510;2024-02-15T06:42:12;11.50;99.90
39657;DHT22;25337;51.478;7.510;2024-02-15T06:44:43;11.50;99.90
39657;DHT22;25337;51.478;7.510;2024-02-15T06:47:09;11.40;99.90
39657;DHT22;25337;51.478;7.510;2024-02-15T06:49:39;11.40;99.90
39657;DHT22;25337;51.478;7.510;2024-02-15T06:52:08;11.40;99.90
39657;DHT22;25337;51.478;7.510;2024-02-15T06:54:39;11.40;99.90
39657;DHT22;25337;51.478;7.510;2024-02-15T06:57:04;11.40;99.90
39657;DHT22;25337;51.478;7.510;2024-02-15T06:59:31;11.30;99.90
39657;DHT22;25337;51.478;7.510;2024-02-15T07:02:00;11.30;99.90
39657;DHT22;25337;51.478;7.510;2024-02-15T07:04:26;11.40;99.90
39657;DHT22;25337;51.478;7.510;2024-02-15T07:06:52;11.30;99.90
39657;DHT22;25337;51.478;7.510;2024-02-15T07:09:20;11.30;99.90
39657;DHT22;25337;51.478;7.510;2024-02-15T07:11:48;11.30;99.90
39657;DHT22;25337;51.478;7.510;2024-02-15T07:14:14;11.30;99.90
39657;DHT22;25337;51.478;7.510;2024-02-15T07:16:44;11.30;99.90
39657;DHT22;25337;51.478;7.510;2024-02-15T07:19:10;11.20;99.90
39657;DHT22;25337;51.478;7.510;2024-02-15T07:21:35;11.30;99.90
39657;DHT22;25337;51.478;7.510;2024-02-15T07:24:01;11.20;99.90
39657;DHT22;25337;51.478;7.510;2024-02-15T07:26:27;11.30;99.90
39657;DHT22;25337;51.478;7.510;2024-02-15T07:28:55;11.30;99.90
39657;DHT22;25337;51.478;7.510;2024-02-15T07:31:21;11.30;99.90
39657;DHT22;25337;51.478;7.510;2024-02-15T07:33:51;11.30;99.90
39657;DHT22;25337;51.478;7.510;2024-02-15T07:36:23;11.20;99.90
39657;DHT22;25337;51.478;7.510;2024-02-15T07:38:53;11.20;99.90
39657;DHT22;25337;51.478;7.510;2024-02-15T07:41:21;11.20;99.90
39657;DHT22;25337;51.478;7.510;2024-02-15T07:43:54;11.20;99.90
39657;DHT22;25337;51.478;7.510;2024-02-15T07:46:21;11.20;99.90
39657;DHT22;25337;51.478;7.510;2024-02-15T07:48:50;11.20;99.90
39657;DHT22;25337;51.478;7.510;2024-02-15T07:51:16;11.20;99.90
39657;DHT22;25337;51.478;7.510;2024-02-15T07:53:43;11.20;99.90
39657;DHT22;25337;51.478;7.510;2024-02-15T07:56:10;11.20;99.90
39657;DHT22;25337;51.478;7.510;2024-02-15T07:58:48;11.20;99.90
39657;DHT22;25337;51.478;7.510;2024-02-15T08:01:17;11.30;99.90
39657;DHT22;25337;51.478;7.510;2024-02-15T08:03:44;11.20;99.90
39657;DHT22;25337;51.478;7.510;2024-02-15T08:06:15;11.30;99.90
39657;DHT22;25337;51.478;7.510;2024-02-15T08:08:44;11.30;99.90
39657;DHT22;25337;51.478;7.510;2024-02-15T08:11:14;11.20;99.90
39657;DHT22;25337;51.478;7.510;2024-02-15T08:13:47;11.20;99.90
39657;DHT22;25337;51.478;7.510;2024-02-15T08:16:22;11.30;99.90
39657;DHT22;25337;51.478;7.510;2024-02-15T08:18:59;11.20;99.90
39657;DHT22;25337;51.478;7.510;2024-02-15T08:21:33;11.30;99.90
39657;DHT22;25337;51.478;7.510;2024-02-15T08:24:03;11.30;99.90
39657;DHT22;25337;51.478;7.510;2024-02-15T08:26:33;11.30;99.90
39657;DHT22;25337;51.478;7.510;2024-02-15T08:28:58;11.30;99.90
39657;DHT22;25337;51.478;7.510;2024-02-15T08:31:24;11.20;99.90
39657;DHT22;25337;51.478;7.510;2024-02-15T08:33:50;11.40;99.90
39657;DHT22;25337;51.478;7.510;2024-02-15T08:36:15;11.30;99.90
39657;DHT22;25337;51.478;7.510;2024-02-15T08:38:41;11.40;99.90
39657;DHT22;25337;51.478;7.510;2024-02-15T08:41:07;11.50;99.90
39657;DHT22;25337;51.478;7.510;2024-02-15T08:43:34;11.50;99.90
39657;DHT22;25337;51.478;7.510;2024-02-15T08:46:00;11.60;99.90
39657;DHT22;25337;51.478;7.510;2024-02-15T08:48:26;11.70;99.90
39657;DHT22;25337;51.478;7.510;2024-02-15T08:50:52;11.70;99.90
39657;DHT22;25337;51.478;7.510;2024-02-15T08:53:18;11.80;99.90
39657;DHT22;25337;51.478;7.510;2024-02-15T08:55:47;11.80;99.90
39657;DHT22;25337;51.478;7.510;2024-02-15T08:58:13;11.80;99.90
39657;DHT22;25337;51.478;7.510;2024-02-15T09:00:39;11.80;99.90
39657;DHT22;25337;51.478;7.510;2024-02-15T09:03:10;11.80;99.90
39657;DHT22;25337;51.478;7.510;2024-02-15T09:05:35;11.90;99.90
39657;DHT22;25337;51.478;7.510;2024-02-15T09:08:01;11.80;99.90
39657;DHT22;25337;51.478;7.510;2024-02-15T09:10:28;11.80;99.90
39657;DHT22;25337;51.478;7.510;2024-02-15T09:12:55;11.90;99.90
39657;DHT22;25337;51.478;7.510;2024-02-15T09:15:22;11.90;99.90
39657;DHT22;25337;51.478;7.510;2024-02-15T09:17:48;11.90;99.90
39657;DHT22;25337;51.478;7.510;2024-02-15T09:20:15;11.90;99.90
39657;DHT22;25337;51.478;7.510;2024-02-15T09:22:51;11.90;99.90
39657;DHT22;25337;51.478;7.510;2024-02-15T09:25:20;11.90;99.90
39657;DHT22;25337;51.478;7.510;2024-02-15T09:27:49;11.80;99.90
39657;DHT22;25337;51.478;7.510;2024-02-15T09:30:15;11.90;99.90
39657;DHT22;25337;51.478;7.510;2024-02-15T09:32:42;11.90;99.90
39657;DHT22;25337;51.478;7.510;2024-02-15T09:35:09;11.90;99.90
39657;DHT22;25337;51.478;7.510;2024-02-15T09:37:37;11.90;99.90
39657;DHT22;25337;51.478;7.510;2024-02-15T09:40:09;11.80;99.90
39657;DHT22;25337;51.478;7.510;2024-02-15T09:42:36;11.80;99.90
39657;DHT22;25337;51.478;7.510;2024-02-15T09:45:02;11.90;99.90
39657;DHT22;25337;51.478;7.510;2024-02-15T09:47:38;11.90;99.90
39657;DHT22;25337;51.478;7.510;2024-02-15T09:50:10;11.90;99.90
39657;DHT22;25337;51.478;7.510;2024-02-15T09:52:39;12.00;99.90
39657;DHT22;25337;51.478;7.510;2024-02-15T09:55:07;12.10;99.90
39657;DHT22;25337;51.478;7.510;2024-02-15T09:57:38;12.10;99.90
39657;DHT22;25337;51.478;7.510;2024-02-15T10:00:05;12.20;99.90
39657;DHT22;25337;51.478;7.510;2024-02-15T10:02:33;12.10;99.90
39657;DHT22;25337;51.478;7.510;2024-02-15T10:05:02;12.20;99.90
39657;DHT22;25337;51.478;7.510;2024-02-15T10:07:27;12.20;99.90
39657;DHT22;25337;51.478;7.510;2024-02-15T10:09:54;12.30;99.90
39657;DHT22;25337;51.478;7.510;2024-02-15T10:12:19;12.40;99.90
39657;DHT22;25337;51.478;7.510;2024-02-15T10:14:49;12.50;99.90
39657;DHT22;25337;51.478;7.510;2024-02-15T10:17:15;12.60;99.90
39657;DHT22;25337;51.478;7.510;2024-02-15T10:19:42;12.70;99.90
39657;DHT22;25337;51.478;7.510;2024-02-15T10:22:10;12.80;99.90
39657;DHT22;25337;51.478;7.510;2024-02-15T10:24:37;12.80;99.90
39657;DHT22;25337;51.478;7.510;2024-02-15T10:27:05;13.00;99.90
39657;DHT22;25337;51.478;7.510;2024-02-15T10:29:33;13.00;99.90
39657;DHT22;25337;51.478;7.510;2024-02-15T10:32:03;13.10;99.90
39657;DHT22;25337;51.478;7.510;2024-02-15T10:34:29;13.20;99.90
39657;DHT22;25337;51.478;7.510;2024-02-15T10:37:16;13.20;99.90
39657;DHT22;25337;51.478;7.510;2024-02-15T10:39:42;13.20;99.90
39657;DHT22;25337;51.478;7.510;2024-02-15T10:42:08;13.10;99.90
39657;DHT22;25337;51.478;7.510;2024-02-15T10:44:37;13.00;99.90
39657;DHT22;25337;51.478;7.510;2024-02-15T10:47:07;12.90;99.90
39657;DHT22;25337;51.478;7.510;2024-02-15T10:49:34;12.90;99.90
39657;DHT22;25337;51.478;7.510;2024-02-15T10:52:02;13.00;99.90
39657;DHT22;25337;51.478;7.510;2024-02-15T10:54:40;13.00;99.90
39657;DHT22;25337;51.478;7.510;2024-02-15T10:57:09;13.10;99.90
39657;DHT22;25337;51.478;7.510;2024-02-15T10:59:35;13.10;99.90
39657;DHT22;25337;51.478;7.510;2024-02-15T11:02:20;13.20;99.90
39657;DHT22;25337;51.478;7.510;2024-02-15T11:04:52;13.30;99.90
39657;DHT22;25337;51.478;7.510;2024-02-15T11:07:25;13.40;99.90
39657;DHT22;25337;51.478;7.510;2024-02-15T11:09:54;13.50;99.90
39657;DHT22;25337;51.478;7.510;2024-02-15T11:12:27;13.60;99.90
39657;DHT22;25337;51.478;7.510;2024-02-15T11:14:54;13.70;99.90
39657;DHT22;25337;51.478;7.510;2024-02-15T11:20:10;13.80;99.90
39657;DHT22;25337;51.478;7.510;2024-02-15T11:22:56;13.80;99.90
39657;DHT22;25337;51.478;7.510;2024-02-15T11:25:35;13.90;99.90
39657;DHT22;25337;51.478;7.510;2024-02-15T11:30:48;13.80;99.90
39657;DHT22;25337;51.478;7.510;2024-02-15T11:33:35;13.80;99.90
39657;DHT22;25337;51.478;7.510;2024-02-15T11:36:12;13.80;99.90
39657;DHT22;25337;51.478;7.510;2024-02-15T11:38:39;13.70;99.90
39657;DHT22;25337;51.478;7.510;2024-02-15T11:41:11;13.70;99.90
39657;DHT22;25337;51.478;7.510;2024-02-15T11:46:18;13.60;99.90
39657;DHT22;25337;51.478;7.510;2024-02-15T11:48:51;13.70;99.90
39657;DHT22;25337;51.478;7.510;2024-02-15T11:54:20;13.70;99.90
39657;DHT22;25337;51.478;7.510;2024-02-15T11:56:53;13.70;99.90
39657;DHT22;25337;51.478;7.510;2024-02-15T11:59:44;13.80;99.90
39657;DHT22;25337;51.478;7.510;2024-02-15T12:02:38;13.80;99.90
39657;DHT22;25337;51.478;7.510;2024-02-15T12:05:22;14.00;99.90
39657;DHT22;25337;51.478;7.510;2024-02-15T12:08:07;13.80;99.90
39657;DHT22;25337;51.478;7.510;2024-02-15T12:11:00;13.90;99.90
39657;DHT22;25337;51.478;7.510;2024-02-15T12:13:50;13.90;99.90
39657;DHT22;25337;51.478;7.510;2024-02-15T12:16:35;13.90;99.90
39657;DHT22;25337;51.478;7.510;2024-02-15T12:19:19;13.90;99.90
39657;DHT22;25337;51.478;7.510;2024-02-15T12:21:47;14.00;99.90
39657;DHT22;25337;51.478;7.510;2024-02-15T12:24:14;14.00;99.90
39657;DHT22;25337;51.478;7.510;2024-02-15T12:26:42;14.00;99.90
39657;DHT22;25337;51.478;7.510;2024-02-15T12:29:08;14.10;99.90
39657;DHT22;25337;51.478;7.510;2024-02-15T12:31:38;14.10;99.90
39657;DHT22;25337;51.478;7.510;2024-02-15T12:34:04;14.20;99.90
39657;DHT22;25337;51.478;7.510;2024-02-15T12:36:34;14.20;99.90
39657;DHT22;25337;51.478;7.510;2024-02-15T12:39:08;14.30;99.90
39657;DHT22;25337;51.478;7.510;2024-02-15T12:41:41;14.50;99.90
39657;DHT22;25337;51.478;7.510;2024-02-15T12:44:07;14.60;99.90
39657;DHT22;25337;51.478;7.510;2024-02-15T12:46:34;14.80;99.90
39657;DHT22;25337;51.478;7.510;2024-02-15T12:49:30;14.90;99.90
39657;DHT22;25337;51.478;7.510;2024-02-15T12:52:37;15.00;99.90
39657;DHT22;25337;51.478;7.510;2024-02-15T12:55:24;15.10;99.90
39657;DHT22;25337;51.478;7.510;2024-02-15T12:57:54;15.40;99.90
39657;DHT22;25337;51.478;7.510;2024-02-15T13:00:25;15.70;99.90
39657;DHT22;25337;51.478;7.510;2024-02-15T13:02:55;15.90;99.90
39657;DHT22;25337;51.478;7.510;2024-02-15T13:05:21;16.10;99.90
39657;DHT22;25337;51.478;7.510;2024-02-15T13:07:51;16.30;99.90
39657;DHT22;25337;51.478;7.510;2024-02-15T13:10:17;16.30;99.90
39657;DHT22;25337;51.478;7.510;2024-02-15T13:12:46;16.20;99.90
39657;DHT22;25337;51.478;7.510;2024-02-15T13:15:15;16.20;99.90
39657;DHT22;25337;51.478;7.510;2024-02-15T13:17:49;16.10;99.90
39657;DHT22;25337;51.478;7.510;2024-02-15T13:20:17;16.10;99.90
39657;DHT22;25337;51.478;7.510;2024-02-15T13:22:46;16.40;99.90
39657;DHT22;25337;51.478;7.510;2024-02-15T13:25:13;16.10;99.90
39657;DHT22;25337;51.478;7.510;2024-02-15T13:27:42;16.20;99.90
39657;DHT22;25337;51.478;7.510;2024-02-15T13:30:09;16.30;99.90
39657;DHT22;25337;51.478;7.510;2024-02-15T13:32:39;16.40;99.90
39657;DHT22;25337;51.478;7.510;2024-02-15T13:35:10;16.50;99.90
39657;DHT22;25337;51.478;7.510;2024-02-15T13:37:42;16.60;99.90
39657;DHT22;25337;51.478;7.510;2024-02-15T13:40:11;16.70;99.90
39657;DHT22;25337;51.478;7.510;2024-02-15T13:42:49;16.70;99.90
39657;DHT22;25337;51.478;7.510;2024-02-15T13:45:22;16.80;99.90
39657;DHT22;25337;51.478;7.510;2024-02-15T13:47:48;16.70;99.90
39657;DHT22;25337;51.478;7.510;2024-02-15T13:50:14;16.60;99.90
39657;DHT22;25337;51.478;7.510;2024-02-15T13:52:45;16.50;99.90
39657;DHT22;25337;51.478;7.510;2024-02-15T13:55:15;16.40;99.90
39657;DHT22;25337;51.478;7.510;2024-02-15T13:57:43;16.20;99.90
39657;DHT22;25337;51.478;7.510;2024-02-15T14:00:12;16.20;99.90
39657;DHT22;25337;51.478;7.510;2024-02-15T14:02:42;16.10;99.90
39657;DHT22;25337;51.478;7.510;2024-02-15T14:05:11;16.10;99.90
39657;DHT22;25337;51.478;7.510;2024-02-15T14:07:37;16.00;99.90
39657;DHT22;25337;51.478;7.510;2024-02-15T14:10:05;16.00;99.90
39657;DHT22;25337;51.478;7.510;2024-02-15T14:12:30;16.00;99.90
39657;DHT22;25337;51.478;7.510;2024-02-15T14:14:56;15.90;99.90
39657;DHT22;25337;51.478;7.510;2024-02-15T14:17:22;15.90;99.90
39657;DHT22;25337;51.478;7.510;2024-02-15T14:19:48;15.90;99.90
39657;DHT22;25337;51.478;7.510;2024-02-15T14:22:14;15.90;99.90
39657;DHT22;25337;51.478;7.510;2024-02-15T14:24:44;16.00;99.90
39657;DHT22;25337;51.478;7.510;2024-02-15T14:27:10;16.00;99.90
39657;DHT22;25337;51.478;7.510;2024-02-15T14:29:37;16.00;99.90
39657;DHT22;25337;51.478;7.510;2024-02-15T14:32:13;15.90;99.90
39657;DHT22;25337;51.478;7.510;2024-02-15T14:34:57;15.80;99.90
39657;DHT22;25337;51.478;7.510;2024-02-15T14:37:23;15.80;99.90
39657;DHT22;25337;51.478;7.510;2024-02-15T14:39:49;15.80;99.90
39657;DHT22;25337;51.478;7.510;2024-02-15T14:42:15;15.80;99.90
39657;DHT22;25337;51.478;7.510;2024-02-15T14:44:41;15.70;99.90
39657;DHT22;25337;51.478;7.510;2024-02-15T14:47:08;15.70;99.90
39657;DHT22;25337;51.478;7.510;2024-02-15T14:49:34;15.50;99.90
39657;DHT22;25337;51.478;7.510;2024-02-15T14:52:00;15.40;99.90
39657;DHT22;25337;51.478;7.510;2024-02-15T14:54:27;15.30;99.90
39657;DHT22;25337;51.478;7.510;2024-02-15T14:56:53;15.30;99.90
39657;DHT22;25337;51.478;7.510;2024-02-15T14:59:19;15.20;99.90
39657;DHT22;25337;51.478;7.510;2024-02-15T15:01:45;15.20;99.90
39657;DHT22;25337;51.478;7.510;2024-02-15T15:04:10;15.10;99.90
39657;DHT22;25337;51.478;7.510;2024-02-15T15:06:38;15.10;99.90
39657;DHT22;25337;51.478;7.510;2024-02-15T15:09:22;15.10;99.90
39657;DHT22;25337;51.478;7.510;2024-02-15T15:12:06;15.00;99.90
39657;DHT22;25337;51.478;7.510;2024-02-15T15:14:50;15.00;99.90
39657;DHT22;25337;51.478;7.510;2024-02-15T15:17:15;15.00;99.90
39657;DHT22;25337;51.478;7.510;2024-02-15T15:19:42;14.90;99.90
39657;DHT22;25337;51.478;7.510;2024-02-15T15:22:08;15.00;99.90
39657;DHT22;25337;51.478;7.510;2024-02-15T15:24:34;14.90;99.90
39657;DHT22;25337;51.478;7.510;2024-02-15T15:26:59;14.90;99.90
39657;DHT22;25337;51.478;7.510;2024-02-15T15:29:26;14.90;99.90
39657;DHT22;25337;51.478;7.510;2024-02-15T15:31:52;14.90;99.90
39657;DHT22;25337;51.478;7.510;2024-02-15T15:34:18;14.90;99.90
39657;DHT22;25337;51.478;7.510;2024-02-15T15:36:45;14.90;99.90
39657;DHT22;25337;51.478;7.510;2024-02-15T15:39:13;14.90;99.90
39657;DHT22;25337;51.478;7.510;2024-02-15T15:41:44;14.80;99.90
39657;DHT22;25337;51.478;7.510;2024-02-15T15:44:10;14.80;99.90
39657;DHT22;25337;51.478;7.510;2024-02-15T15:46:35;14.80;99.90
39657;DHT22;25337;51.478;7.510;2024-02-15T15:49:01;14.70;99.90
39657;DHT22;25337;51.478;7.510;2024-02-15T15:51:29;14.70;99.90
39657;DHT22;25337;51.478;7.510;2024-02-15T15:53:55;14.70;99.90